createdAt,value
2023-03-08T00:00:40.627Z,97619.88
2023-03-08T00:03:25.738Z,97617.53
2023-03-08T00:06:13.779Z,97606.59
2023-03-08T00:09:01.147Z,97601.84
2023-03-08T00:11:45.914Z,97601.66
2023-03-08T00:14:30.930Z,97605.53
2023-03-08T00:17:17.057Z,97596.88
2023-03-08T00:20:01.906Z,97592.59
2023-03-08T00:22:46.905Z,97600.75
2023-03-08T00:25:32.028Z,97590.81
2023-03-08T00:28:17.080Z,97578.88
2023-03-08T00:31:05.646Z,97581.00
2023-03-08T00:33:54.740Z,97571.59
2023-03-08T00:36:39.338Z,97582.34
2023-03-08T00:39:24.780Z,97579.00
2023-03-08T00:42:09.445Z,97578.47
2023-03-08T00:44:54.460Z,97576.66
2023-03-08T00:47:39.457Z,97572.03
2023-03-08T00:50:24.351Z,97572.03
2023-03-08T00:53:09.610Z,97562.28
2023-03-08T00:55:59.620Z,97566.94
2023-03-08T00:58:47.304Z,97560.53
2023-03-08T01:01:33.172Z,97555.44
2023-03-08T01:04:18.323Z,97554.44
2023-03-08T01:07:03.344Z,97562.84
2023-03-08T01:09:48.464Z,97560.31
2023-03-08T01:12:35.945Z,97555.22
2023-03-08T01:15:20.757Z,97554.44
2023-03-08T01:18:05.672Z,97554.44
2023-03-08T01:20:57.467Z,97557.53
2023-03-08T01:23:42.695Z,97539.97
2023-03-08T01:26:27.848Z,97540.50
2023-03-08T01:29:13.399Z,97537.19
2023-03-08T01:31:58.007Z,97535.44
2023-03-08T01:34:42.724Z,97536.75
2023-03-08T01:37:27.399Z,97535.97
2023-03-08T01:40:16.119Z,97529.34
2023-03-08T01:43:21.049Z,97525.81
2023-03-08T01:46:24.873Z,97526.03
2023-03-08T01:49:32.838Z,97519.97
2023-03-08T01:52:29.264Z,97515.84
2023-03-08T01:55:16.685Z,97509.22
2023-03-08T01:58:01.971Z,97506.47
2023-03-08T02:00:47.253Z,97506.47
2023-03-08T02:03:32.705Z,97502.91
2023-03-08T02:06:19.795Z,97498.59
2023-03-08T02:09:05.143Z,97495.50
2023-03-08T02:11:51.121Z,97488.44
2023-03-08T02:14:36.574Z,97484.91
2023-03-08T02:17:22.078Z,97481.38
2023-03-08T02:20:24.707Z,97482.13
2023-03-08T02:23:17.354Z,97482.91
2023-03-08T02:26:05.405Z,97481.38
2023-03-08T02:28:50.038Z,97481.16
2023-03-08T02:31:34.925Z,97478.84
2023-03-08T02:34:19.685Z,97476.06
2023-03-08T02:37:04.799Z,97478.38
2023-03-08T02:39:49.729Z,97470.75
2023-03-08T02:42:34.814Z,97470.97
2023-03-08T02:45:19.715Z,97469.78
2023-03-08T02:48:06.677Z,97473.09
2023-03-08T02:50:51.489Z,97468.78
2023-03-08T02:53:36.425Z,97456.69
2023-03-08T02:56:21.533Z,97457.91
2023-03-08T02:59:06.256Z,97463.22
2023-03-08T03:03:10.337Z,97459.56
2023-03-08T03:05:55.085Z,97460.47
2023-03-08T03:08:46.483Z,97462.56
2023-03-08T03:11:31.751Z,97459.44
2023-03-08T03:14:17.374Z,97459.44
2023-03-08T03:17:03.214Z,97462.34
2023-03-08T03:19:48.224Z,97453.72
2023-03-08T03:22:33.424Z,97459.13
2023-03-08T03:25:18.229Z,97453.25
2023-03-08T03:28:04.774Z,97446.66
2023-03-08T03:30:50.537Z,97445.09
2023-03-08T03:33:35.699Z,97440.78
2023-03-08T03:36:21.640Z,97433.16
2023-03-08T03:39:06.854Z,97437.34
2023-03-08T03:41:54.239Z,97440.13
2023-03-08T03:44:38.949Z,97431.16
2023-03-08T03:47:25.476Z,97425.72
2023-03-08T03:50:14.932Z,97424.41
2023-03-08T03:53:13.550Z,97421.72
2023-03-08T03:56:05.923Z,97417.94
2023-03-08T03:58:52.144Z,97415.38
2023-03-08T04:01:39.221Z,97402.63
2023-03-08T04:04:33.247Z,97414.78
2023-03-08T04:07:18.439Z,97418.91
2023-03-08T04:10:11.408Z,97417.69
2023-03-08T04:12:56.202Z,97418.59
2023-03-08T04:15:41.379Z,97419.91
2023-03-08T04:18:29.214Z,97422.00
2023-03-08T04:21:14.897Z,97427.44
2023-03-08T04:24:00.832Z,97426.22
2023-03-08T04:26:47.192Z,97412.84
2023-03-08T04:29:36.365Z,97411.66
2023-03-08T04:32:21.370Z,97412.53
2023-03-08T04:35:10.762Z,97409.38
2023-03-08T04:37:58.042Z,97406.59
2023-03-08T04:41:01.310Z,97399.53
2023-03-08T04:43:56.263Z,97404.16
2023-03-08T04:46:48.681Z,97406.28
2023-03-08T04:49:39.970Z,97396.88
2023-03-08T04:52:25.355Z,97401.19
2023-03-08T04:55:10.738Z,97386.13
2023-03-08T04:57:56.738Z,97394.22
2023-03-08T05:00:43.250Z,97398.00
2023-03-08T05:03:28.022Z,97399.75
2023-03-08T05:06:16.420Z,97410.25
2023-03-08T05:09:01.726Z,97410.25
2023-03-08T05:11:47.362Z,97414.78
2023-03-08T05:14:33.508Z,97407.38
2023-03-08T05:17:18.395Z,97401.63
2023-03-08T05:20:03.839Z,97402.28
2023-03-08T05:22:58.970Z,97402.63
2023-03-08T05:25:54.694Z,97397.00
2023-03-08T05:28:41.365Z,97400.66
2023-03-08T05:31:26.772Z,97395.13
2023-03-08T05:34:13.283Z,97387.81
2023-03-08T05:37:02.418Z,97396.78
2023-03-08T05:39:50.025Z,97398.88
2023-03-08T05:42:38.829Z,97396.97
2023-03-08T05:45:23.715Z,97396.00
2023-03-08T05:48:09.183Z,97402.31
2023-03-08T05:50:54.911Z,97404.72
2023-03-08T05:53:40.821Z,97398.84
2023-03-08T05:56:26.933Z,97405.75
2023-03-08T05:59:26.826Z,97414.56
2023-03-08T06:02:16.080Z,97412.59
2023-03-08T06:05:05.649Z,97404.97
2023-03-08T06:07:50.734Z,97417.56
2023-03-08T06:10:36.472Z,97416.00
2023-03-08T06:13:21.693Z,97405.03
2023-03-08T06:16:08.176Z,97395.91
2023-03-08T06:18:57.161Z,97388.00
2023-03-08T06:21:45.047Z,97400.97
2023-03-08T06:25:14.634Z,97401.16
2023-03-08T06:32:06.301Z,97381.63
2023-03-08T06:35:39.297Z,97390.81
2023-03-08T06:39:03.271Z,97391.25
2023-03-08T06:41:58.342Z,97404.66
2023-03-08T06:44:48.032Z,97394.47
2023-03-08T06:47:36.883Z,97411.81
2023-03-08T06:50:31.396Z,97421.50
2023-03-08T06:56:35.581Z,97410.38
2023-03-08T06:59:30.114Z,97398.78
2023-03-08T07:02:33.085Z,97423.94
2023-03-08T07:13:59.858Z,97437.81
2023-03-08T07:17:23.162Z,97417.44
2023-03-08T07:20:44.249Z,97440.63
2023-03-08T07:23:58.324Z,97441.31
2023-03-08T07:28:08.708Z,97442.72
2023-03-08T07:31:13.274Z,97422.09
2023-03-08T07:35:08.699Z,97432.16
2023-03-08T07:45:48.978Z,97449.22
2023-03-08T07:53:46.488Z,97440.81
2023-03-08T08:03:03.197Z,97424.34
2023-03-08T08:05:54.262Z,97444.81
2023-03-08T08:09:13.034Z,97437.78
2023-03-08T08:12:37.796Z,97420.09
2023-03-08T08:15:45.361Z,97435.56
2023-03-08T08:18:37.274Z,97421.34
2023-03-08T08:26:28.596Z,97443.41
2023-03-08T08:29:49.614Z,97432.63
2023-03-08T08:40:08.826Z,97422.03
2023-03-08T08:42:55.868Z,97442.75
2023-03-08T08:46:32.620Z,97423.09
2023-03-08T08:49:46.541Z,97448.19
2023-03-08T08:53:05.641Z,97439.78
2023-03-08T08:55:53.670Z,97437.00
2023-03-08T08:59:48.511Z,97439.94
2023-03-08T09:25:23.353Z,97440.63
2023-03-08T09:28:17.687Z,97439.69
2023-03-08T09:34:52.035Z,97443.47
2023-03-08T09:38:09.943Z,97458.88
2023-03-08T09:41:29.303Z,97456.09
2023-03-08T09:52:37.845Z,97450.75
2023-03-08T09:55:55.302Z,97434.84
2023-03-08T09:59:17.495Z,97434.28
2023-03-08T10:02:02.709Z,97446.41
2023-03-08T10:05:12.694Z,97445.25
2023-03-08T10:08:36.904Z,97446.78
2023-03-08T10:11:46.376Z,97434.53
2023-03-08T10:15:07.119Z,97430.56
2023-03-08T10:25:51.679Z,97405.56
2023-03-08T10:28:36.827Z,97405.38
2023-03-08T10:31:59.324Z,97451.38
2023-03-08T10:34:46.653Z,97431.75
2023-03-08T10:37:36.239Z,97429.97
2023-03-08T10:40:48.360Z,97420.69
2023-03-08T10:47:58.886Z,97446.34
2023-03-08T10:50:45.851Z,97437.81
2023-03-08T10:53:32.080Z,97445.56
2023-03-08T10:56:37.703Z,97443.53
2023-03-08T10:59:47.439Z,97442.97
2023-03-08T11:02:35.583Z,97445.84
2023-03-08T11:05:28.306Z,97428.88
2023-03-08T11:08:21.123Z,97433.56
2023-03-08T11:11:08.024Z,97436.88
2023-03-08T11:13:54.015Z,97437.25
2023-03-08T11:17:05.498Z,97442.94
2023-03-08T11:20:16.312Z,97446.31
2023-03-08T11:23:26.237Z,97455.88
2023-03-08T11:27:39.760Z,97493.16
2023-03-08T11:30:39.132Z,97467.13
2023-03-08T11:34:01.948Z,97465.28
2023-03-08T11:37:09.025Z,97454.94
2023-03-08T11:40:06.087Z,97466.53
2023-03-08T11:43:24.728Z,97467.09
2023-03-08T11:46:48.455Z,97474.66
2023-03-08T11:49:48.110Z,97474.84
2023-03-08T11:53:04.116Z,97465.28
2023-03-08T11:56:02.972Z,97480.16
2023-03-08T11:58:52.748Z,97491.25
2023-03-08T12:02:03.276Z,97486.81
2023-03-08T12:08:38.620Z,97486.44
2023-03-08T12:11:36.431Z,97471.97
2023-03-08T12:14:28.607Z,97490.25
2023-03-08T12:17:34.388Z,97485.41
2023-03-08T12:20:45.504Z,97481.31
2023-03-08T12:23:39.816Z,97489.78
2023-03-08T12:26:45.640Z,97492.63
2023-03-08T12:29:49.127Z,97494.91
2023-03-08T12:32:37.916Z,97498.19
2023-03-08T12:35:22.952Z,97504.03
2023-03-08T12:38:20.341Z,97500.44
2023-03-08T12:41:25.795Z,97507.75
2023-03-08T12:44:58.660Z,97517.16
2023-03-08T12:47:55.631Z,97508.41
2023-03-08T12:50:44.675Z,97510.47
2023-03-08T12:53:40.171Z,97518.66
2023-03-08T12:56:30.652Z,97532.63
2023-03-08T12:59:15.348Z,97546.72
2023-03-08T13:02:04.678Z,97544.69
2023-03-08T13:05:00.692Z,97550.53
2023-03-08T13:08:11.778Z,97543.03
2023-03-08T13:11:04.358Z,97550.44
2023-03-08T13:14:01.060Z,97558.34
2023-03-08T13:16:49.292Z,97548.00
2023-03-08T13:19:35.419Z,97570.59
2023-03-08T13:22:28.129Z,97584.44
2023-03-08T13:25:27.716Z,97588.69
2023-03-08T13:28:21.269Z,97599.03
2023-03-08T13:31:31.618Z,97604.91
2023-03-08T13:34:30.762Z,97609.56
2023-03-08T13:37:24.080Z,97611.38
2023-03-08T13:40:18.513Z,97612.31
2023-03-08T13:43:05.025Z,97620.28
2023-03-08T13:45:58.189Z,97613.94
2023-03-08T13:48:44.645Z,97612.31
2023-03-08T13:51:29.815Z,97610.59
2023-03-08T13:54:19.770Z,97614.66
2023-03-08T13:57:16.796Z,97601.69
2023-03-08T14:00:21.410Z,97597.78
2023-03-08T14:03:06.948Z,97607.63
2023-03-08T14:05:52.362Z,97610.06
2023-03-08T14:08:37.377Z,97605.72
2023-03-08T14:11:26.482Z,97602.50
2023-03-08T14:14:19.770Z,97609.84
2023-03-08T14:17:04.999Z,97607.13
2023-03-08T14:20:21.393Z,97609.63
2023-03-08T14:23:23.717Z,97607.25
2023-03-08T14:26:28.278Z,97595.69
2023-03-08T14:29:21.605Z,97598.38
2023-03-08T14:32:30.794Z,97604.16
2023-03-08T14:35:22.432Z,97608.09
2023-03-08T14:38:23.419Z,97611.88
2023-03-08T14:41:10.648Z,97607.16
2023-03-08T14:43:56.063Z,97607.84
2023-03-08T14:46:41.222Z,97612.78
2023-03-08T14:49:28.985Z,97610.13
2023-03-08T14:52:20.697Z,97609.47
2023-03-08T14:55:22.566Z,97607.81
2023-03-08T14:58:13.104Z,97611.88
2023-03-08T15:01:01.074Z,97604.88
2023-03-08T15:03:46.083Z,97622.56
2023-03-08T15:06:35.745Z,97613.53
2023-03-08T15:09:21.939Z,97611.34
2023-03-08T15:12:08.891Z,97612.97
2023-03-08T15:14:53.574Z,97609.72
2023-03-08T15:17:38.579Z,97602.69
2023-03-08T15:20:24.401Z,97613.28
2023-03-08T15:23:15.575Z,97613.16
2023-03-08T15:26:00.470Z,97625.75
2023-03-08T15:28:45.377Z,97618.34
2023-03-08T15:31:31.535Z,97628.72
2023-03-08T15:34:16.247Z,97625.22
2023-03-08T15:37:01.076Z,97627.63
2023-03-08T15:39:46.078Z,97626.78
2023-03-08T15:42:31.275Z,97625.38
2023-03-08T15:45:16.500Z,97630.19
2023-03-08T15:48:04.517Z,97622.69
2023-03-08T15:50:49.635Z,97639.75
2023-03-08T15:53:35.567Z,97630.59
2023-03-08T15:56:22.157Z,97637.22
2023-03-08T15:59:06.918Z,97640.03
2023-03-08T16:01:51.994Z,97642.44
2023-03-08T16:04:37.075Z,97641.94
2023-03-08T16:07:22.249Z,97648.38
2023-03-08T16:10:10.018Z,97660.38
2023-03-08T16:12:54.989Z,97664.38
2023-03-08T16:15:40.892Z,97661.13
2023-03-08T16:18:27.573Z,97657.72
2023-03-08T16:21:12.692Z,97664.09
2023-03-08T16:23:58.939Z,97662.78
2023-03-08T16:26:43.935Z,97665.41
2023-03-08T16:29:28.940Z,97662.75
2023-03-08T16:32:14.485Z,97676.50
2023-03-08T16:35:00.416Z,97666.50
2023-03-08T16:37:45.180Z,97662.47
2023-03-08T16:40:30.657Z,97669.66
2023-03-08T16:43:16.940Z,97670.50
2023-03-08T16:46:02.098Z,97678.66
2023-03-08T16:48:49.503Z,97690.53
2023-03-08T16:51:36.612Z,97696.06
2023-03-08T16:54:22.774Z,97700.44
2023-03-08T16:57:18.751Z,97699.53
2023-03-08T17:00:06.060Z,97705.53
2023-03-08T17:02:51.075Z,97706.47
2023-03-08T17:05:39.685Z,97703.69
2023-03-08T17:08:24.697Z,97702.47
2023-03-08T17:11:24.967Z,97696.94
2023-03-08T17:14:11.477Z,97703.06
2023-03-08T17:16:56.700Z,97700.56
2023-03-08T17:19:41.456Z,97713.53
2023-03-08T17:22:26.684Z,97705.25
2023-03-08T17:25:11.069Z,97718.59
2023-03-08T17:27:55.795Z,97706.13
2023-03-08T17:30:42.200Z,97702.88
2023-03-08T17:33:26.987Z,97702.13
2023-03-08T17:36:13.448Z,97688.31
2023-03-08T17:38:58.474Z,97692.88
2023-03-08T17:41:44.236Z,97681.59
2023-03-08T17:44:29.212Z,97681.28
2023-03-08T17:47:13.614Z,97692.03
2023-03-08T17:49:58.267Z,97689.91
2023-03-08T17:52:43.341Z,97695.59
2023-03-08T17:55:32.325Z,97683.50
2023-03-08T17:58:19.245Z,97676.25
2023-03-08T18:01:18.952Z,97672.28
2023-03-08T18:04:04.493Z,97673.06
2023-03-08T18:06:49.084Z,97658.69
2023-03-08T18:09:34.220Z,97671.19
2023-03-08T18:12:19.223Z,97663.38
2023-03-08T18:15:04.197Z,97665.16
2023-03-08T18:17:49.619Z,97668.72
2023-03-08T18:20:34.632Z,97663.06
2023-03-08T18:23:21.446Z,97664.03
2023-03-08T18:26:06.474Z,97658.97
2023-03-08T18:28:51.881Z,97661.31
2023-03-08T18:31:36.627Z,97656.25
2023-03-08T18:34:21.509Z,97652.72
2023-03-08T18:37:06.494Z,97651.53
2023-03-08T18:39:54.698Z,97646.31
2023-03-08T18:42:40.317Z,97647.47
2023-03-08T18:45:25.281Z,97654.13
2023-03-08T18:48:10.016Z,97658.63
2023-03-08T18:50:54.708Z,97660.38
2023-03-08T18:53:39.724Z,97662.91
2023-03-08T18:56:26.336Z,97657.84
2023-03-08T18:59:13.469Z,97657.84
2023-03-08T19:01:57.995Z,97647.34
2023-03-08T19:04:43.032Z,97648.69
2023-03-08T19:07:27.759Z,97656.91
2023-03-08T19:10:14.173Z,97653.41
2023-03-08T19:12:58.679Z,97651.88
2023-03-08T19:15:43.846Z,97646.63
2023-03-08T19:18:28.755Z,97648.78
2023-03-08T19:21:16.624Z,97652.69
2023-03-08T19:24:01.965Z,97638.66
2023-03-08T19:26:49.541Z,97644.91
2023-03-08T19:29:34.568Z,97644.50
2023-03-08T19:32:19.530Z,97632.09
2023-03-08T19:35:04.213Z,97635.78
2023-03-08T19:37:49.747Z,97635.56
2023-03-08T19:40:34.776Z,97628.19
2023-03-08T19:43:19.807Z,97630.50
2023-03-08T19:46:05.153Z,97624.50
2023-03-08T19:48:50.058Z,97631.47
2023-03-08T19:51:35.716Z,97635.19
2023-03-08T19:54:22.558Z,97638.28
2023-03-08T19:57:08.651Z,97631.31
2023-03-08T19:59:54.084Z,97629.75
2023-03-08T20:02:42.070Z,97618.84
2023-03-08T20:05:27.184Z,97622.16
2023-03-08T20:08:13.354Z,97620.00
2023-03-08T20:10:58.189Z,97615.31
2023-03-08T20:13:42.956Z,97613.59
2023-03-08T20:16:28.219Z,97609.88
2023-03-08T20:19:13.387Z,97615.31
2023-03-08T20:21:58.175Z,97607.16
2023-03-08T20:24:43.283Z,97607.16
2023-03-08T20:27:29.189Z,97600.56
2023-03-08T20:30:14.784Z,97606.59
2023-03-08T20:32:59.712Z,97608.34
2023-03-08T20:35:47.229Z,97603.84
2023-03-08T20:38:32.683Z,97611.81
2023-03-08T20:41:18.367Z,97603.41
2023-03-08T20:44:03.182Z,97604.28
2023-03-08T20:46:48.380Z,97607.09
2023-03-08T20:49:33.234Z,97606.25
2023-03-08T20:52:18.430Z,97602.22
2023-03-08T20:55:03.843Z,97595.47
2023-03-08T20:57:51.308Z,97594.41
2023-03-08T21:00:36.793Z,97590.59
2023-03-08T21:03:21.370Z,97587.56
2023-03-08T21:06:14.635Z,97582.78
2023-03-08T21:09:00.121Z,97582.75
2023-03-08T21:11:45.113Z,97583.88
2023-03-08T21:14:29.990Z,97583.25
2023-03-08T21:17:15.189Z,97582.81
2023-03-08T21:20:00.032Z,97578.88
2023-03-08T21:22:44.687Z,97566.97
2023-03-08T21:25:33.004Z,97550.16
2023-03-08T21:28:20.319Z,97550.94
2023-03-08T21:31:10.484Z,97540.41
2023-03-08T21:33:55.708Z,97532.88
2023-03-08T21:36:40.598Z,97530.06
2023-03-08T21:39:26.261Z,97517.53
2023-03-08T21:42:10.950Z,97521.50
2023-03-08T21:44:55.623Z,97505.50
2023-03-08T21:47:40.225Z,97499.06
2023-03-08T21:50:26.508Z,97490.97
2023-03-08T21:53:11.537Z,97502.25
2023-03-08T21:55:56.667Z,97493.38
2023-03-08T21:58:42.466Z,97494.66
2023-03-08T22:01:29.253Z,97492.16
2023-03-08T22:04:15.717Z,97466.63
2023-03-08T22:07:00.570Z,97463.00
2023-03-08T22:09:45.543Z,97466.81
2023-03-08T22:12:30.439Z,97465.97
2023-03-08T22:15:15.289Z,97465.44
2023-03-08T22:18:00.473Z,97456.53
2023-03-08T22:20:45.091Z,97457.75
2023-03-08T22:23:31.470Z,97459.44
2023-03-08T22:26:16.683Z,97453.81
2023-03-08T22:29:01.319Z,97457.47
2023-03-08T22:31:45.987Z,97452.94
2023-03-08T22:34:30.670Z,97448.41
2023-03-08T22:37:15.709Z,97447.44
2023-03-08T22:40:00.293Z,97452.84
2023-03-08T22:42:46.387Z,97433.25
2023-03-08T22:45:31.414Z,97421.69
2023-03-08T22:48:16.168Z,97426.28
2023-03-08T22:51:10.425Z,97439.59
2023-03-08T22:53:58.488Z,97448.31
2023-03-08T22:56:44.214Z,97443.56
2023-03-08T22:59:28.775Z,97444.91
2023-03-08T23:02:14.408Z,97441.69
2023-03-08T23:04:58.892Z,97447.66
2023-03-08T23:07:44.062Z,97436.63
2023-03-08T23:10:28.896Z,97444.00
2023-03-08T23:13:21.613Z,97444.66
2023-03-08T23:16:16.977Z,97443.69
2023-03-08T23:19:02.628Z,97443.00
2023-03-08T23:21:47.885Z,97430.53
2023-03-08T23:24:32.745Z,97431.84
2023-03-08T23:27:17.406Z,97432.94
2023-03-08T23:30:01.997Z,97418.69
2023-03-08T23:32:47.184Z,97420.97
2023-03-08T23:35:32.169Z,97419.75
2023-03-08T23:38:17.010Z,97413.91
2023-03-08T23:41:08.316Z,97415.22
2023-03-08T23:43:54.377Z,97415.22
2023-03-08T23:46:39.568Z,97406.69
2023-03-08T23:49:24.596Z,97413.00
2023-03-08T23:52:09.627Z,97404.72
2023-03-08T23:54:54.523Z,97391.78
2023-03-08T23:57:39.766Z,97395.56
